createdAt,value
2023-03-04T00:03:43.153Z,11.45
2023-03-04T00:06:15.352Z,11.15
2023-03-04T00:08:44.449Z,13.05
2023-03-04T00:11:33.673Z,11.07
2023-03-04T00:14:06.692Z,13.02
2023-03-04T00:16:34.374Z,12.77
2023-03-04T00:19:02.039Z,12.90
2023-03-04T00:21:31.445Z,12.95
2023-03-04T00:24:04.029Z,11.48
2023-03-04T00:26:34.802Z,13.27
2023-03-04T00:29:02.419Z,12.02
2023-03-04T00:31:30.245Z,12.55
2023-03-04T00:34:00.359Z,11.57
2023-03-04T00:36:30.947Z,12.20
2023-03-04T00:39:00.316Z,11.18
2023-03-04T00:41:28.033Z,11.80
2023-03-04T00:43:55.649Z,12.05
2023-03-04T00:46:23.298Z,11.25
2023-03-04T00:48:50.828Z,10.43
2023-03-04T00:51:18.349Z,12.35
2023-03-04T00:53:46.172Z,12.77
2023-03-04T00:56:15.412Z,12.57
2023-03-04T00:58:42.902Z,12.73
2023-03-04T01:01:10.630Z,12.48
2023-03-04T01:03:41.418Z,11.00
2023-03-04T01:06:09.088Z,12.43
2023-03-04T01:08:36.727Z,13.23
2023-03-04T01:11:04.294Z,11.20
2023-03-04T01:13:33.393Z,12.20
2023-03-04T01:16:01.144Z,12.73
2023-03-04T01:18:28.630Z,11.48
2023-03-04T01:20:56.835Z,10.10
2023-03-04T01:23:24.938Z,10.48
2023-03-04T01:25:52.476Z,11.23
2023-03-04T01:28:19.981Z,11.93
2023-03-04T01:30:48.989Z,11.70
2023-03-04T01:33:16.559Z,12.45
2023-03-04T01:35:44.157Z,11.68
2023-03-04T01:38:12.823Z,12.45
2023-03-04T01:40:40.517Z,11.45
2023-03-04T01:43:08.304Z,11.23
2023-03-04T01:45:37.919Z,12.85
2023-03-04T01:48:10.216Z,11.48
2023-03-04T01:50:37.849Z,11.75
2023-03-04T01:53:05.665Z,11.32
2023-03-04T01:55:33.269Z,12.55
2023-03-04T01:58:01.013Z,10.38
2023-03-04T02:00:30.858Z,13.55
2023-03-04T02:02:59.768Z,13.10
2023-03-04T02:05:29.245Z,12.90
2023-03-04T02:07:57.499Z,12.52
2023-03-04T02:10:25.348Z,12.70
2023-03-04T02:12:53.564Z,13.20
2023-03-04T02:15:21.770Z,12.25
2023-03-04T02:17:49.401Z,14.48
2023-03-04T02:20:24.095Z,14.48
2023-03-04T02:22:58.254Z,14.55
2023-03-04T02:25:29.451Z,13.45
2023-03-04T02:27:58.443Z,15.30
2023-03-04T02:30:26.535Z,15.30
2023-03-04T02:32:54.495Z,15.43
2023-03-04T02:35:22.322Z,15.80
2023-03-04T02:37:50.139Z,16.15
2023-03-04T02:40:22.274Z,14.93
2023-03-04T02:42:49.920Z,16.13
2023-03-04T02:45:37.154Z,16.15
2023-03-04T02:48:05.263Z,16.02
2023-03-04T02:50:35.169Z,17.20
2023-03-04T02:53:03.038Z,16.38
2023-03-04T02:55:30.638Z,16.83
2023-03-04T02:57:58.253Z,15.88
2023-03-04T03:00:26.212Z,16.88
2023-03-04T03:02:57.001Z,14.70
2023-03-04T03:05:25.975Z,16.10
2023-03-04T03:07:54.023Z,16.33
2023-03-04T03:10:21.729Z,17.73
2023-03-04T03:12:49.247Z,17.25
2023-03-04T03:15:16.957Z,19.30
2023-03-04T03:17:44.544Z,16.95
2023-03-04T03:20:14.843Z,16.30
2023-03-04T03:22:42.673Z,17.85
2023-03-04T03:25:11.572Z,16.85
2023-03-04T03:27:39.129Z,16.25
2023-03-04T03:30:08.375Z,17.15
2023-03-04T03:32:36.005Z,15.73
2023-03-04T03:35:04.545Z,17.63
2023-03-04T03:37:33.795Z,17.85
2023-03-04T03:40:01.350Z,18.20
2023-03-04T03:42:28.901Z,16.05
2023-03-04T03:44:57.041Z,17.30
2023-03-04T03:47:24.564Z,17.05
2023-03-04T03:49:52.092Z,18.33
2023-03-04T03:52:19.942Z,16.73
2023-03-04T03:54:48.946Z,18.17
2023-03-04T03:57:16.747Z,16.73
2023-03-04T03:59:44.263Z,20.02
2023-03-04T04:02:11.833Z,18.42
2023-03-04T04:04:39.476Z,17.08
2023-03-04T04:07:07.026Z,19.27
2023-03-04T04:09:34.567Z,17.73
2023-03-04T04:12:05.337Z,19.33
2023-03-04T04:14:32.947Z,17.05
2023-03-04T04:17:00.736Z,18.77
2023-03-04T04:19:28.390Z,17.42
2023-03-04T04:21:56.009Z,19.77
2023-03-04T04:24:23.687Z,18.35
2023-03-04T04:26:51.312Z,15.95
2023-03-04T04:29:20.419Z,16.95
2023-03-04T04:31:48.105Z,18.10
2023-03-04T04:34:15.658Z,17.65
2023-03-04T04:36:43.195Z,15.18
2023-03-04T04:39:10.795Z,17.75
2023-03-04T04:41:39.270Z,16.83
2023-03-04T04:44:07.086Z,17.40
2023-03-04T04:46:36.097Z,16.77
2023-03-04T04:49:04.761Z,15.73
2023-03-04T04:51:32.547Z,18.58
2023-03-04T04:54:00.518Z,17.95
2023-03-04T04:56:30.027Z,18.15
2023-03-04T04:58:59.198Z,16.52
2023-03-04T05:01:27.454Z,17.55
2023-03-04T05:03:56.434Z,17.45
2023-03-04T05:06:24.358Z,18.13
2023-03-04T05:08:52.635Z,17.60
2023-03-04T05:11:25.445Z,17.27
2023-03-04T05:13:53.614Z,17.25
2023-03-04T05:16:21.502Z,16.45
2023-03-04T05:18:49.424Z,18.38
2023-03-04T05:21:19.276Z,17.95
2023-03-04T05:23:47.790Z,16.63
2023-03-04T05:26:29.723Z,15.77
2023-03-04T05:28:57.311Z,17.55
2023-03-04T05:31:24.959Z,18.17
2023-03-04T05:33:52.491Z,15.43
2023-03-04T05:36:21.704Z,14.13
2023-03-04T05:38:49.381Z,14.68
2023-03-04T05:41:18.989Z,15.70
2023-03-04T05:43:46.665Z,14.63
2023-03-04T05:46:15.479Z,16.40
2023-03-04T05:48:43.193Z,14.40
2023-03-04T05:51:10.886Z,13.82
2023-03-04T05:53:40.302Z,14.90
2023-03-04T05:56:08.469Z,14.02
2023-03-04T05:58:36.142Z,13.98
2023-03-04T06:01:04.045Z,11.65
2023-03-04T06:03:32.199Z,13.07
2023-03-04T06:06:00.572Z,13.88
2023-03-04T06:08:29.255Z,14.95
2023-03-04T06:10:59.137Z,13.52
2023-03-04T06:13:27.132Z,13.50
2023-03-04T06:15:55.954Z,15.70
2023-03-04T06:18:23.568Z,13.73
2023-03-04T06:20:51.208Z,15.15
2023-03-04T06:23:18.764Z,13.88
2023-03-04T06:25:46.581Z,15.40
2023-03-04T06:28:15.765Z,13.55
2023-03-04T06:30:43.465Z,14.98
2023-03-04T06:33:11.416Z,13.27
2023-03-04T06:35:39.827Z,14.15
2023-03-04T06:38:07.397Z,15.07
2023-03-04T06:40:35.382Z,16.73
2023-03-04T06:43:02.921Z,14.38
2023-03-04T06:45:31.764Z,15.00
2023-03-04T06:47:59.307Z,14.40
2023-03-04T06:50:26.914Z,14.70
2023-03-04T06:52:54.675Z,12.35
2023-03-04T06:55:22.472Z,13.55
2023-03-04T06:57:51.161Z,12.63
2023-03-04T07:03:21.568Z,15.02
2023-03-04T07:05:52.714Z,13.02
2023-03-04T07:08:22.181Z,13.77
2023-03-04T07:10:55.099Z,14.52
2023-03-04T07:13:25.439Z,13.40
2023-03-04T07:15:53.939Z,14.38
2023-03-04T07:18:27.140Z,14.90
2023-03-04T07:20:55.223Z,14.23
2023-03-04T07:23:23.368Z,14.52
2023-03-04T07:25:53.823Z,15.25
2023-03-04T07:28:24.204Z,13.70
2023-03-04T07:30:51.744Z,14.07
2023-03-04T07:33:19.286Z,15.50
2023-03-04T07:35:48.265Z,13.38
2023-03-04T07:38:16.030Z,16.15
2023-03-04T07:40:43.608Z,14.27
2023-03-04T07:43:12.708Z,13.82
2023-03-04T07:45:40.361Z,14.30
2023-03-04T07:48:07.965Z,14.80
2023-03-04T07:50:36.396Z,15.27
2023-03-04T07:53:05.289Z,15.10
2023-03-04T07:55:33.271Z,14.48
2023-03-04T07:58:00.939Z,15.05
2023-03-04T08:00:28.555Z,17.52
2023-03-04T08:02:56.209Z,15.90
2023-03-04T08:05:24.232Z,16.17
2023-03-04T08:07:51.765Z,16.92
2023-03-04T08:10:20.947Z,16.83
2023-03-04T08:12:48.412Z,14.70
2023-03-04T08:15:16.347Z,15.90
2023-03-04T08:17:44.129Z,17.98
2023-03-04T08:20:12.647Z,16.98
2023-03-04T08:22:40.186Z,15.40
2023-03-04T08:25:08.017Z,15.63
2023-03-04T08:27:38.494Z,14.38
2023-03-04T08:30:06.465Z,16.10
2023-03-04T08:32:34.763Z,16.90
2023-03-04T08:35:03.392Z,16.42
2023-03-04T08:37:32.628Z,16.42
2023-03-04T08:40:00.960Z,17.27
2023-03-04T08:42:28.717Z,17.85
2023-03-04T08:44:58.094Z,17.02
2023-03-04T08:47:26.075Z,15.20
2023-03-04T08:49:53.860Z,16.23
2023-03-04T08:52:33.090Z,15.77
2023-03-04T08:55:07.518Z,16.40
2023-03-04T08:57:40.597Z,15.23
2023-03-04T09:00:18.874Z,17.02
2023-03-04T09:02:59.698Z,15.15
2023-03-04T09:05:29.450Z,16.92
2023-03-04T09:08:02.559Z,16.65
2023-03-04T09:10:30.857Z,14.88
2023-03-04T09:13:04.920Z,15.90
2023-03-04T09:15:36.160Z,14.55
2023-03-04T09:18:07.424Z,16.27
2023-03-04T09:23:17.128Z,15.48
2023-03-04T09:25:50.347Z,17.05
2023-03-04T09:28:20.958Z,15.65
2023-03-04T09:30:49.956Z,14.38
2023-03-04T09:33:22.144Z,14.65
2023-03-04T09:35:56.037Z,14.68
2023-03-04T09:38:25.354Z,13.85
2023-03-04T09:40:56.630Z,15.25
2023-03-04T09:43:35.347Z,12.07
2023-03-04T09:46:24.226Z,13.10
2023-03-04T09:48:57.385Z,12.85
2023-03-04T09:51:37.726Z,15.90
2023-03-04T09:54:13.200Z,15.10
2023-03-04T09:56:42.542Z,15.30
2023-03-04T09:59:18.390Z,14.57
2023-03-04T10:01:49.938Z,16.52
2023-03-04T10:04:29.072Z,14.98
2023-03-04T10:07:00.122Z,14.88
2023-03-04T10:09:30.143Z,14.25
2023-03-04T10:12:09.088Z,13.25
2023-03-04T10:14:41.902Z,12.77
2023-03-04T10:17:15.606Z,11.73
2023-03-04T10:22:47.788Z,11.77
2023-03-04T10:25:34.992Z,12.32
2023-03-04T10:28:08.142Z,11.73
2023-03-04T10:30:44.049Z,11.85
2023-03-04T10:33:20.992Z,14.05
2023-03-04T10:35:52.080Z,12.05
2023-03-04T10:38:20.717Z,11.50
2023-03-04T10:40:59.827Z,10.68
2023-03-04T10:43:27.917Z,12.30
2023-03-04T10:45:59.802Z,10.00
2023-03-04T10:48:31.007Z,11.93
2023-03-04T10:51:11.895Z,12.27
2023-03-04T10:53:43.912Z,10.95
2023-03-04T10:56:26.652Z,10.45
2023-03-04T10:58:56.375Z,12.27
2023-03-04T11:01:25.430Z,11.18
2023-03-04T11:03:58.246Z,11.43
2023-03-04T11:06:25.961Z,11.68
2023-03-04T11:08:59.171Z,11.73
2023-03-04T11:11:30.135Z,11.02
2023-03-04T11:14:02.642Z,10.65
2023-03-04T11:16:32.067Z,10.85
2023-03-04T11:19:05.579Z,14.82
2023-03-04T11:21:41.012Z,13.60
2023-03-04T11:24:27.471Z,13.52
2023-03-04T11:27:06.942Z,12.35
2023-03-04T11:29:42.884Z,12.82
2023-03-04T11:32:16.117Z,11.35
2023-03-04T11:34:47.823Z,11.63
2023-03-04T11:37:21.834Z,11.93
2023-03-04T11:39:52.082Z,11.32
2023-03-04T11:42:27.845Z,12.88
2023-03-04T11:44:56.141Z,12.25
2023-03-04T11:47:33.787Z,9.95
2023-03-04T11:50:09.941Z,10.25
2023-03-04T11:52:46.716Z,11.10
2023-03-04T11:55:23.362Z,12.23
2023-03-04T11:57:57.197Z,11.73
2023-03-04T12:00:32.463Z,10.88
2023-03-04T12:06:23.018Z,11.40
2023-03-04T12:08:58.683Z,11.77
2023-03-04T12:11:32.422Z,12.68
2023-03-04T12:14:23.086Z,10.93
2023-03-04T12:17:04.217Z,10.68
2023-03-04T12:19:39.102Z,11.32
2023-03-04T12:22:17.134Z,11.20
2023-03-04T12:25:00.133Z,12.90
2023-03-04T12:27:35.843Z,9.88
2023-03-04T12:30:08.309Z,11.90
2023-03-04T12:32:40.917Z,11.15
2023-03-04T12:35:29.592Z,11.32
2023-03-04T12:38:08.602Z,11.70
2023-03-04T12:40:56.883Z,11.90
2023-03-04T12:43:36.083Z,11.38
2023-03-04T12:46:07.869Z,11.65
2023-03-04T12:48:38.364Z,11.68
2023-03-04T12:51:29.843Z,10.85
2023-03-04T12:56:54.972Z,11.48
2023-03-04T12:59:24.976Z,10.85
2023-03-04T13:01:56.979Z,12.10
2023-03-04T13:04:28.792Z,11.15
2023-03-04T13:07:07.968Z,10.77
2023-03-04T13:09:41.192Z,11.48
2023-03-04T13:12:16.806Z,11.90
2023-03-04T13:14:59.238Z,11.20
2023-03-04T13:17:43.428Z,11.05
2023-03-04T13:20:18.756Z,9.95
2023-03-04T13:22:48.060Z,11.10
2023-03-04T13:25:46.065Z,12.10
2023-03-04T13:28:16.259Z,11.68
2023-03-04T13:31:04.410Z,12.10
2023-03-04T13:33:48.015Z,11.77
2023-03-04T13:36:35.486Z,12.10
2023-03-04T13:39:04.905Z,11.43
2023-03-04T13:41:34.131Z,12.73
2023-03-04T13:44:02.738Z,12.30
2023-03-04T13:46:41.887Z,12.23
2023-03-04T13:49:18.000Z,11.65
2023-03-04T13:52:04.141Z,11.38
2023-03-04T13:54:32.804Z,12.40
2023-03-04T13:57:17.955Z,11.85
2023-03-04T14:00:07.721Z,12.57
2023-03-04T14:02:35.524Z,11.40
2023-03-04T14:05:08.485Z,10.65
2023-03-04T14:07:43.706Z,11.25
2023-03-04T14:10:24.750Z,11.27
2023-03-04T14:13:22.462Z,10.23
2023-03-04T14:16:00.856Z,11.68
2023-03-04T14:21:22.613Z,10.15
2023-03-04T14:24:00.682Z,11.25
2023-03-04T14:29:29.454Z,10.02
2023-03-04T14:31:58.085Z,10.10
2023-03-04T14:34:28.656Z,8.90
2023-03-04T14:36:57.607Z,9.18
2023-03-04T14:39:29.920Z,8.77
2023-03-04T14:42:01.266Z,9.07
2023-03-04T14:44:35.753Z,8.82
2023-03-04T14:59:02.840Z,8.90
2023-03-04T15:01:31.842Z,8.00
2023-03-04T15:04:02.062Z,8.57
2023-03-04T15:06:36.404Z,8.25
2023-03-04T15:09:09.101Z,7.78
2023-03-04T15:11:47.359Z,6.82
2023-03-04T15:17:24.405Z,8.25
2023-03-04T15:19:59.405Z,7.18
2023-03-04T15:22:27.098Z,7.50
2023-03-04T15:24:58.414Z,8.23
2023-03-04T15:27:26.613Z,8.07
2023-03-04T15:29:56.113Z,7.88
2023-03-04T15:32:24.249Z,9.18
2023-03-04T15:34:52.322Z,7.68
2023-03-04T15:37:22.100Z,7.88
2023-03-04T15:39:49.925Z,7.45
2023-03-04T15:42:19.209Z,7.18
2023-03-04T15:44:48.183Z,7.10
2023-03-04T15:47:15.760Z,8.63
2023-03-04T15:49:43.803Z,7.25
2023-03-04T15:52:16.967Z,7.50
2023-03-04T15:54:48.086Z,7.60
2023-03-04T16:06:23.813Z,8.10
2023-03-04T16:08:54.261Z,7.75
2023-03-04T16:11:26.836Z,7.75
2023-03-04T16:13:58.622Z,6.82
2023-03-04T16:16:28.131Z,7.95
2023-03-04T16:18:55.896Z,7.88
2023-03-04T16:21:24.319Z,7.20
2023-03-04T16:23:54.435Z,7.65
2023-03-04T16:26:31.620Z,8.80
2023-03-04T16:29:04.131Z,7.23
2023-03-04T16:31:42.645Z,9.05
2023-03-04T16:34:12.559Z,7.90
2023-03-04T16:36:40.702Z,8.23
2023-03-04T16:39:11.528Z,7.43
2023-03-04T16:41:49.109Z,7.80
2023-03-04T16:44:25.544Z,8.52
2023-03-04T16:47:03.211Z,8.57
2023-03-04T16:49:49.863Z,8.00
2023-03-04T16:52:26.056Z,8.70
2023-03-04T16:54:53.737Z,8.00
2023-03-04T16:57:21.288Z,8.90
2023-03-04T17:05:40.129Z,8.18
2023-03-04T17:08:15.382Z,7.68
2023-03-04T17:10:47.457Z,8.90
2023-03-04T17:13:17.390Z,8.48
2023-03-04T17:15:53.032Z,8.95
2023-03-04T17:18:46.125Z,8.30
2023-03-04T17:21:28.255Z,7.60
2023-03-04T17:24:16.431Z,8.10
2023-03-04T17:26:49.430Z,7.97
2023-03-04T17:29:19.759Z,8.88
2023-03-04T17:32:07.542Z,8.18
2023-03-04T17:34:41.878Z,8.23
2023-03-04T17:37:25.610Z,7.82
2023-03-04T17:40:09.150Z,7.95
2023-03-04T17:43:04.542Z,7.80
2023-03-04T17:45:35.985Z,7.45
2023-03-04T17:48:11.232Z,7.45
2023-03-04T17:50:39.605Z,8.18
2023-03-04T17:53:14.936Z,7.78
2023-03-04T17:55:49.385Z,9.93
2023-03-04T17:58:19.733Z,7.80
2023-03-04T18:00:50.748Z,8.35
2023-03-04T18:03:21.904Z,7.30
2023-03-04T18:05:53.890Z,7.03
2023-03-04T18:08:24.129Z,8.18
2023-03-04T18:10:54.359Z,9.70
2023-03-04T18:13:21.918Z,7.93
2023-03-04T18:15:51.484Z,8.13
2023-03-04T18:18:19.385Z,8.73
2023-03-04T18:20:46.862Z,8.35
2023-03-04T18:23:14.437Z,7.07
2023-03-04T18:25:46.460Z,7.38
2023-03-04T18:28:13.925Z,7.88
2023-03-04T18:30:42.090Z,8.38
2023-03-04T18:33:09.759Z,6.88
2023-03-04T18:36:02.122Z,7.68
2023-03-04T18:38:31.336Z,7.10
2023-03-04T18:41:01.458Z,7.43
2023-03-04T18:43:31.955Z,6.82
2023-03-04T18:46:03.459Z,7.57
2023-03-04T18:48:32.111Z,6.95
2023-03-04T18:50:59.707Z,7.95
2023-03-04T18:53:29.448Z,7.03
2023-03-04T18:56:01.498Z,8.38
2023-03-04T18:58:31.537Z,8.05
2023-03-04T19:01:05.116Z,6.97
2023-03-04T19:03:34.411Z,8.15
2023-03-04T19:06:02.349Z,8.20
2023-03-04T19:08:29.954Z,7.55
2023-03-04T19:11:36.793Z,8.38
2023-03-04T19:14:11.985Z,8.88
2023-03-04T19:16:40.372Z,7.20
2023-03-04T19:19:08.066Z,7.15
2023-03-04T19:21:38.686Z,7.55
2023-03-04T19:24:06.549Z,7.10
2023-03-04T19:26:38.334Z,9.75
2023-03-04T19:29:11.107Z,8.20
2023-03-04T19:31:41.345Z,7.20
2023-03-04T19:34:09.280Z,8.18
2023-03-04T19:36:36.989Z,8.88
2023-03-04T19:39:04.861Z,8.55
2023-03-04T19:41:32.667Z,9.02
2023-03-04T19:44:00.320Z,8.93
2023-03-04T19:46:29.329Z,9.25
2023-03-04T19:48:56.890Z,8.07
2023-03-04T19:51:26.546Z,9.10
2023-03-04T19:53:54.496Z,8.88
2023-03-04T19:56:24.247Z,9.52
2023-03-04T19:58:54.120Z,9.73
2023-03-04T20:01:22.684Z,9.43
2023-03-04T20:03:54.830Z,8.10
2023-03-04T20:06:27.086Z,8.93
2023-03-04T20:08:56.523Z,8.65
2023-03-04T20:11:24.508Z,8.50
2023-03-04T20:13:52.025Z,8.23
2023-03-04T20:16:19.587Z,9.60
2023-03-04T20:18:47.188Z,10.93
2023-03-04T20:21:16.818Z,9.20
2023-03-04T20:23:44.418Z,8.05
2023-03-04T20:26:12.177Z,10.55
2023-03-04T20:28:39.730Z,10.13
2023-03-04T20:31:10.975Z,9.77
2023-03-04T20:33:48.829Z,9.35
2023-03-04T20:36:17.852Z,9.93
2023-03-04T20:38:45.521Z,10.38
2023-03-04T20:41:13.054Z,9.35
2023-03-04T20:43:40.845Z,6.45
2023-03-04T20:46:27.095Z,6.55
2023-03-04T20:48:54.896Z,4.63
2023-03-04T20:51:26.117Z,4.18
2023-03-04T20:53:55.388Z,4.25
2023-03-04T20:56:23.292Z,3.22
2023-03-04T20:58:50.903Z,3.50
2023-03-04T21:01:18.627Z,3.17
2023-03-04T21:03:46.618Z,2.70
2023-03-04T21:06:14.618Z,3.22
2023-03-04T21:08:47.505Z,2.75
2023-03-04T21:11:16.605Z,2.00
2023-03-04T21:13:44.896Z,2.00
2023-03-04T21:16:14.172Z,2.40
2023-03-04T21:18:42.421Z,2.08
2023-03-04T21:21:15.856Z,1.52
2023-03-04T21:23:46.572Z,1.65
2023-03-04T21:26:17.032Z,1.75
2023-03-04T21:28:44.845Z,1.52
2023-03-04T21:31:15.232Z,1.33
2023-03-04T21:33:42.828Z,1.10
2023-03-04T21:36:10.673Z,1.40
2023-03-04T21:38:41.007Z,0.80
2023-03-04T21:41:14.848Z,1.20
2023-03-04T21:43:45.319Z,0.95
2023-03-04T21:46:20.122Z,1.85
2023-03-04T21:48:48.365Z,0.93
2023-03-04T21:51:16.839Z,0.70
2023-03-04T21:53:44.711Z,0.80
2023-03-04T21:56:16.067Z,0.90
2023-03-04T21:58:45.902Z,0.82
2023-03-04T22:01:14.164Z,0.80
2023-03-04T22:03:41.974Z,1.13
2023-03-04T22:06:10.440Z,0.70
2023-03-04T22:08:38.028Z,0.95
2023-03-04T22:11:06.547Z,1.00
2023-03-04T22:13:35.975Z,1.00
2023-03-04T22:16:07.426Z,0.90
2023-03-04T22:18:39.889Z,1.20
2023-03-04T22:21:08.467Z,0.80
2023-03-04T22:23:39.170Z,0.80
2023-03-04T22:26:08.312Z,1.10
2023-03-04T22:28:37.762Z,0.90
2023-03-04T22:31:14.124Z,0.73
2023-03-04T22:33:41.723Z,0.88
2023-03-04T22:36:12.309Z,1.35
2023-03-04T22:38:40.038Z,1.10
2023-03-04T22:41:14.904Z,1.10
2023-03-04T22:43:46.126Z,1.63
2023-03-04T22:46:14.901Z,1.42
2023-03-04T22:48:42.669Z,1.38
2023-03-04T22:51:10.794Z,1.20
2023-03-04T22:53:40.132Z,1.60
2023-03-04T22:56:08.393Z,1.17
2023-03-04T22:58:36.054Z,1.05
2023-03-04T23:01:05.735Z,1.08
2023-03-04T23:03:33.770Z,1.02
2023-03-04T23:06:02.693Z,1.30
2023-03-04T23:08:30.202Z,1.30
2023-03-04T23:10:57.739Z,1.25
2023-03-04T23:13:28.118Z,1.23
2023-03-04T23:15:55.773Z,1.08
2023-03-04T23:18:24.797Z,1.15
2023-03-04T23:20:55.533Z,1.13
2023-03-04T23:23:23.072Z,1.38
2023-03-04T23:25:52.116Z,0.90
2023-03-04T23:28:20.212Z,1.25
2023-03-04T23:30:47.912Z,1.05
2023-03-04T23:33:15.439Z,1.00
2023-03-04T23:35:44.327Z,1.10
2023-03-04T23:38:12.133Z,0.90
2023-03-04T23:40:39.651Z,1.17
2023-03-04T23:43:07.304Z,1.00
2023-03-04T23:45:34.951Z,1.02
2023-03-04T23:48:33.540Z,1.38
2023-03-04T23:51:02.417Z,1.17
2023-03-04T23:53:29.968Z,1.52
2023-03-04T23:55:57.501Z,1.00
2023-03-04T23:58:25.079Z,1.20
